createdAt,value
2022-07-26T00:01:14.537Z,8.85
2022-07-26T00:03:41.055Z,7.70
2022-07-26T00:06:07.491Z,8.95
2022-07-26T00:08:33.890Z,7.55
2022-07-26T00:11:00.306Z,8.93
2022-07-26T00:13:33.884Z,8.77
2022-07-26T00:16:00.315Z,8.57
2022-07-26T00:18:26.787Z,8.65
2022-07-26T00:20:53.352Z,9.25
2022-07-26T00:23:22.377Z,8.43
2022-07-26T00:25:48.781Z,8.25
2022-07-26T00:28:18.222Z,7.70
2022-07-26T00:30:44.643Z,8.40
2022-07-26T00:33:11.096Z,7.70
2022-07-26T00:35:37.555Z,8.57
2022-07-26T00:38:03.976Z,7.95
2022-07-26T00:40:30.826Z,9.02
2022-07-26T00:42:57.278Z,8.02
2022-07-26T00:45:23.740Z,7.47
2022-07-26T00:47:50.281Z,8.15
2022-07-26T00:50:17.995Z,8.57
2022-07-26T00:52:45.451Z,7.65
2022-07-26T00:55:11.910Z,7.63
2022-07-26T00:57:38.472Z,8.07
2022-07-26T01:00:05.754Z,9.02
2022-07-26T01:02:32.213Z,8.32
2022-07-26T01:04:58.672Z,9.00
2022-07-26T01:07:25.194Z,8.70
2022-07-26T01:09:51.635Z,9.15
2022-07-26T01:12:18.302Z,8.60
2022-07-26T01:14:45.442Z,9.57
2022-07-26T01:17:12.228Z,9.35
2022-07-26T01:19:38.598Z,8.10
2022-07-26T01:22:05.144Z,9.65
2022-07-26T01:24:31.769Z,9.18
2022-07-26T01:27:01.282Z,9.18
2022-07-26T01:29:34.604Z,8.95
2022-07-26T01:32:04.134Z,9.07
2022-07-26T01:34:30.799Z,9.10
2022-07-26T01:36:57.378Z,8.82
2022-07-26T01:39:23.987Z,8.50
2022-07-26T01:41:50.407Z,9.90
2022-07-26T01:44:16.772Z,9.52
2022-07-26T01:46:43.237Z,8.73
2022-07-26T01:49:09.780Z,8.90
2022-07-26T01:51:36.510Z,9.45
2022-07-26T01:54:02.934Z,8.32
2022-07-26T01:56:29.371Z,9.20
2022-07-26T01:58:55.781Z,10.15
2022-07-26T02:01:38.387Z,9.35
2022-07-26T02:04:06.434Z,9.73
2022-07-26T02:06:33.151Z,9.02
2022-07-26T02:09:00.777Z,9.63
2022-07-26T02:11:28.591Z,10.68
2022-07-26T02:13:55.019Z,10.25
2022-07-26T02:16:21.521Z,9.85
2022-07-26T02:18:48.042Z,9.93
2022-07-26T02:21:14.427Z,10.80
2022-07-26T02:23:41.930Z,10.75
2022-07-26T02:26:08.839Z,9.82
2022-07-26T02:28:38.137Z,9.40
2022-07-26T02:31:04.526Z,9.05
2022-07-26T02:33:31.393Z,10.05
2022-07-26T02:35:57.769Z,9.55
2022-07-26T02:38:24.541Z,9.55
2022-07-26T02:40:52.763Z,9.50
2022-07-26T02:43:19.517Z,10.10
2022-07-26T02:46:03.700Z,10.48
2022-07-26T02:48:30.736Z,10.02
2022-07-26T02:50:57.307Z,11.52
2022-07-26T02:53:23.677Z,10.10
2022-07-26T02:55:50.325Z,11.35
2022-07-26T02:58:16.723Z,9.68
2022-07-26T03:00:43.163Z,9.95
2022-07-26T03:03:09.637Z,10.48
2022-07-26T03:05:36.195Z,10.20
2022-07-26T03:08:02.649Z,9.88
2022-07-26T03:10:29.125Z,9.57
2022-07-26T03:12:56.619Z,8.75
2022-07-26T03:15:23.141Z,10.77
2022-07-26T03:17:50.015Z,8.07
2022-07-26T03:20:16.941Z,7.65
2022-07-26T03:22:43.344Z,7.90
2022-07-26T03:25:09.970Z,7.72
2022-07-26T03:27:36.469Z,7.78
2022-07-26T03:30:03.358Z,6.43
2022-07-26T03:32:29.786Z,7.55
2022-07-26T03:34:56.240Z,8.40
2022-07-26T03:37:23.256Z,8.38
2022-07-26T03:39:49.981Z,7.15
2022-07-26T03:42:16.397Z,7.50
2022-07-26T03:44:43.021Z,7.65
2022-07-26T03:47:09.473Z,8.25
2022-07-26T03:49:35.873Z,6.93
2022-07-26T03:52:02.281Z,6.85
2022-07-26T03:54:28.909Z,6.50
2022-07-26T03:56:55.336Z,6.93
2022-07-26T03:59:24.056Z,6.32
2022-07-26T04:01:50.717Z,5.25
2022-07-26T04:04:18.408Z,4.93
2022-07-26T04:06:47.609Z,5.65
2022-07-26T04:09:14.665Z,4.78
2022-07-26T04:11:41.343Z,4.22
2022-07-26T04:14:08.030Z,4.85
2022-07-26T04:16:36.959Z,4.07
2022-07-26T04:19:20.654Z,4.75
2022-07-26T04:21:47.082Z,4.32
2022-07-26T04:24:13.483Z,3.80
2022-07-26T04:26:39.945Z,3.50
2022-07-26T04:29:06.385Z,3.42
2022-07-26T04:31:36.209Z,3.40
2022-07-26T04:34:03.079Z,3.70
2022-07-26T04:36:29.465Z,3.35
2022-07-26T04:38:58.906Z,3.53
2022-07-26T04:41:25.339Z,3.85
2022-07-26T04:43:51.762Z,3.42
2022-07-26T04:46:19.372Z,3.38
2022-07-26T04:48:45.856Z,3.30
2022-07-26T04:51:12.253Z,3.47
2022-07-26T04:53:38.642Z,2.75
2022-07-26T04:56:07.005Z,2.80
2022-07-26T04:58:33.462Z,2.75
2022-07-26T05:01:09.998Z,2.78
2022-07-26T05:03:37.478Z,3.00
2022-07-26T05:06:04.200Z,2.55
2022-07-26T05:08:30.581Z,2.28
2022-07-26T05:10:56.994Z,2.42
2022-07-26T05:13:30.489Z,1.80
2022-07-26T05:15:57.304Z,3.33
2022-07-26T05:18:23.696Z,2.13
2022-07-26T05:20:51.009Z,2.35
2022-07-26T05:23:20.576Z,2.08
2022-07-26T05:25:47.623Z,1.83
2022-07-26T05:28:14.118Z,2.05
2022-07-26T05:30:40.576Z,1.50
2022-07-26T05:33:06.988Z,1.60
2022-07-26T05:35:33.410Z,1.42
2022-07-26T05:37:59.804Z,1.33
2022-07-26T05:40:26.680Z,1.83
2022-07-26T05:42:54.916Z,1.63
2022-07-26T05:45:21.486Z,1.83
2022-07-26T05:47:51.234Z,1.60
2022-07-26T05:50:17.696Z,1.17
2022-07-26T05:52:44.171Z,1.63
2022-07-26T05:55:10.606Z,1.58
2022-07-26T05:57:37.059Z,1.98
2022-07-26T06:00:05.289Z,1.42
2022-07-26T06:02:32.437Z,1.30
2022-07-26T06:04:59.020Z,1.50
2022-07-26T06:07:25.382Z,1.15
2022-07-26T06:09:51.781Z,1.48
2022-07-26T06:12:18.481Z,1.65
2022-07-26T06:14:45.042Z,1.77
2022-07-26T06:17:11.542Z,1.60
2022-07-26T06:19:38.009Z,1.60
2022-07-26T06:22:04.413Z,1.45
2022-07-26T06:24:30.916Z,1.23
2022-07-26T06:27:04.548Z,1.60
2022-07-26T06:29:32.214Z,1.40
2022-07-26T06:32:00.989Z,1.38
2022-07-26T06:34:27.456Z,1.30
2022-07-26T06:36:54.033Z,1.60
2022-07-26T06:39:20.641Z,1.60
2022-07-26T06:41:47.053Z,0.90
2022-07-26T06:44:13.549Z,1.25
2022-07-26T06:46:39.999Z,0.80
2022-07-26T06:49:06.609Z,0.82
2022-07-26T06:51:33.664Z,1.00
2022-07-26T06:54:00.968Z,0.82
2022-07-26T06:56:27.548Z,1.20
2022-07-26T06:58:55.278Z,1.08
2022-07-26T07:01:58.121Z,1.30
2022-07-26T07:04:08.708Z,1.15
2022-07-26T07:06:35.460Z,1.20
2022-07-26T07:09:01.870Z,1.00
2022-07-26T07:11:28.273Z,0.90
2022-07-26T07:13:55.214Z,0.90
2022-07-26T07:16:23.563Z,1.23
2022-07-26T07:18:51.368Z,0.88
2022-07-26T07:21:17.769Z,1.25
2022-07-26T07:23:44.148Z,1.00
2022-07-26T07:26:10.573Z,1.20
2022-07-26T07:28:38.488Z,1.38
2022-07-26T07:31:05.636Z,1.30
2022-07-26T07:33:43.861Z,1.40
2022-07-26T07:36:19.978Z,1.30
2022-07-26T07:38:46.409Z,1.02
2022-07-26T07:41:12.845Z,1.02
2022-07-26T07:43:39.300Z,1.35
2022-07-26T07:46:05.833Z,1.38
2022-07-26T07:48:32.373Z,1.05
2022-07-26T07:50:58.791Z,1.02
2022-07-26T07:53:25.248Z,1.20
2022-07-26T07:55:55.353Z,1.08
2022-07-26T07:58:21.971Z,1.23
2022-07-26T08:00:50.029Z,1.30
2022-07-26T08:03:17.946Z,1.00
2022-07-26T08:05:45.522Z,1.10
2022-07-26T08:08:12.013Z,0.95
2022-07-26T08:10:43.621Z,0.90
2022-07-26T08:13:18.562Z,1.13
2022-07-26T08:15:47.680Z,1.05
2022-07-26T08:18:15.762Z,1.33
2022-07-26T08:20:43.295Z,1.15
2022-07-26T08:23:10.095Z,0.93
2022-07-26T08:25:39.943Z,1.20
2022-07-26T08:28:30.638Z,0.95
2022-07-26T08:30:59.002Z,0.90
2022-07-26T08:33:25.537Z,1.23
2022-07-26T08:35:58.611Z,1.10
2022-07-26T08:38:25.297Z,0.90
2022-07-26T08:40:51.872Z,0.93
2022-07-26T08:43:18.378Z,1.20
2022-07-26T08:45:45.941Z,0.85
2022-07-26T08:48:17.814Z,1.10
2022-07-26T08:50:44.717Z,0.80
2022-07-26T08:53:13.056Z,1.58
2022-07-26T08:56:05.459Z,0.88
2022-07-26T08:58:26.411Z,1.35
2022-07-26T09:01:09.672Z,1.60
2022-07-26T09:03:39.080Z,0.90
2022-07-26T09:06:12.234Z,1.40
2022-07-26T09:08:38.722Z,1.88
2022-07-26T09:11:23.477Z,1.17
2022-07-26T09:13:57.339Z,1.13
2022-07-26T09:16:23.923Z,1.73
2022-07-26T09:18:50.577Z,1.30
2022-07-26T09:21:28.902Z,0.80
2022-07-26T09:23:55.353Z,0.75
2022-07-26T09:26:23.341Z,1.30
2022-07-26T09:29:10.143Z,0.80
2022-07-26T09:31:37.886Z,0.70
2022-07-26T09:34:04.918Z,1.08
2022-07-26T09:36:31.705Z,0.60
2022-07-26T09:39:00.800Z,0.57
2022-07-26T09:41:28.924Z,1.00
2022-07-26T09:43:56.540Z,0.65
2022-07-26T09:46:23.991Z,1.00
2022-07-26T09:49:10.095Z,0.85
2022-07-26T09:51:36.860Z,0.80
2022-07-26T09:54:03.445Z,1.35
2022-07-26T09:56:46.291Z,0.65
2022-07-26T09:59:17.893Z,0.90
2022-07-26T10:01:44.914Z,1.20
2022-07-26T10:04:11.960Z,1.15
2022-07-26T10:06:40.325Z,1.15
2022-07-26T10:09:07.068Z,1.02
2022-07-26T10:11:42.653Z,1.33
2022-07-26T10:14:27.686Z,0.90
2022-07-26T10:16:54.152Z,1.45
2022-07-26T10:19:45.622Z,1.27
2022-07-26T10:22:37.009Z,0.98
2022-07-26T10:25:21.816Z,1.35
2022-07-26T10:27:52.269Z,0.90
2022-07-26T10:30:22.575Z,1.25
2022-07-26T10:32:54.790Z,1.15
2022-07-26T10:35:31.355Z,1.10
2022-07-26T10:37:58.978Z,1.90
2022-07-26T10:40:30.062Z,1.33
2022-07-26T10:43:39.037Z,1.42
2022-07-26T10:46:13.522Z,1.00
2022-07-26T10:48:55.187Z,1.65
2022-07-26T10:51:26.163Z,0.82
2022-07-26T10:56:21.981Z,1.10
2022-07-26T10:58:48.379Z,1.10
2022-07-26T11:01:14.856Z,0.98
2022-07-26T11:03:42.993Z,1.30
2022-07-26T11:06:16.598Z,1.05
2022-07-26T11:08:47.971Z,1.10
2022-07-26T11:11:26.762Z,1.65
2022-07-26T11:14:03.235Z,1.35
2022-07-26T11:16:36.214Z,0.90
2022-07-26T11:19:11.955Z,0.85
2022-07-26T11:21:39.154Z,1.30
2022-07-26T11:24:05.981Z,1.00
2022-07-26T11:26:40.371Z,0.88
2022-07-26T11:29:06.990Z,0.77
2022-07-26T11:31:50.980Z,0.88
2022-07-26T11:36:53.623Z,1.10
2022-07-26T11:39:25.903Z,0.90
2022-07-26T11:41:57.222Z,1.42
2022-07-26T11:44:24.122Z,1.00
2022-07-26T11:46:50.903Z,1.05
2022-07-26T11:49:17.410Z,1.10
2022-07-26T11:51:54.244Z,1.08
2022-07-26T11:54:21.400Z,0.90
2022-07-26T11:56:56.520Z,0.60
2022-07-26T11:59:26.917Z,0.70
2022-07-26T12:01:53.968Z,0.80
2022-07-26T12:04:24.648Z,1.45
2022-07-26T12:06:51.810Z,1.60
2022-07-26T12:09:34.999Z,1.30
2022-07-26T12:12:03.286Z,1.30
2022-07-26T12:14:31.044Z,1.08
2022-07-26T12:17:09.690Z,0.88
2022-07-26T12:19:36.327Z,0.90
2022-07-26T12:22:12.204Z,0.90
2022-07-26T12:24:42.933Z,1.10
2022-07-26T12:27:16.707Z,0.75
2022-07-26T12:29:45.922Z,0.90
2022-07-26T12:32:14.119Z,0.98
2022-07-26T12:34:41.330Z,0.90
2022-07-26T12:37:12.722Z,0.75
2022-07-26T12:39:39.806Z,1.15
2022-07-26T12:42:33.259Z,0.90
2022-07-26T12:45:01.386Z,1.23
2022-07-26T12:47:27.902Z,0.93
2022-07-26T12:49:57.397Z,1.00
2022-07-26T12:52:24.486Z,0.65
2022-07-26T12:54:51.543Z,1.17
2022-07-26T12:57:18.985Z,0.80
2022-07-26T12:59:45.732Z,1.48
2022-07-26T13:02:12.510Z,0.90
2022-07-26T13:04:39.163Z,0.70
2022-07-26T13:07:06.139Z,0.60
2022-07-26T13:09:35.440Z,0.80
2022-07-26T13:12:02.354Z,0.77
2022-07-26T13:14:28.828Z,0.90
2022-07-26T13:16:55.458Z,0.85
2022-07-26T13:19:22.090Z,1.13
2022-07-26T13:21:52.751Z,0.95
2022-07-26T13:24:19.649Z,1.02
2022-07-26T13:26:46.667Z,0.80
2022-07-26T13:29:13.266Z,0.90
2022-07-26T13:31:39.911Z,1.05
2022-07-26T13:34:06.510Z,0.93
2022-07-26T13:36:33.435Z,0.90
2022-07-26T13:39:00.030Z,0.60
2022-07-26T13:41:26.905Z,0.80
2022-07-26T13:43:55.836Z,1.63
2022-07-26T13:46:23.722Z,0.95
2022-07-26T13:49:00.556Z,1.00
2022-07-26T13:51:50.248Z,0.80
2022-07-26T13:54:18.834Z,1.05
2022-07-26T13:56:45.731Z,1.20
2022-07-26T13:59:12.493Z,1.48
2022-07-26T14:01:43.564Z,0.95
2022-07-26T14:04:12.951Z,1.17
2022-07-26T14:06:40.160Z,0.70
2022-07-26T14:09:10.582Z,0.70
2022-07-26T14:14:04.147Z,0.65
2022-07-26T14:16:30.664Z,0.80
2022-07-26T14:19:00.546Z,0.60
2022-07-26T14:21:38.651Z,0.73
2022-07-26T14:24:14.179Z,0.80
2022-07-26T14:26:43.022Z,1.42
2022-07-26T14:29:09.438Z,0.80
2022-07-26T14:31:36.631Z,1.30
2022-07-26T14:34:03.055Z,0.80
2022-07-26T14:36:29.522Z,0.90
2022-07-26T14:38:55.967Z,1.20
2022-07-26T14:41:22.510Z,0.93
2022-07-26T14:43:54.079Z,1.13
2022-07-26T14:46:22.403Z,1.10
2022-07-26T14:48:54.527Z,1.30
2022-07-26T14:51:21.614Z,1.35
2022-07-26T14:53:48.163Z,1.40
2022-07-26T14:56:14.600Z,1.27
2022-07-26T14:58:42.619Z,1.30
2022-07-26T15:01:09.220Z,1.17
2022-07-26T15:03:35.721Z,1.40
2022-07-26T15:06:02.245Z,1.65
2022-07-26T15:08:28.672Z,1.27
2022-07-26T15:10:55.175Z,1.50
2022-07-26T15:13:21.739Z,1.45
2022-07-26T15:15:48.208Z,1.75
2022-07-26T15:18:14.614Z,1.60
2022-07-26T15:20:41.464Z,2.25
2022-07-26T15:23:09.245Z,1.80
2022-07-26T15:25:38.190Z,1.70
2022-07-26T15:28:04.703Z,1.17
2022-07-26T15:30:31.296Z,1.75
2022-07-26T15:33:03.679Z,2.00
2022-07-26T15:35:30.168Z,1.58
2022-07-26T15:37:56.644Z,2.13
2022-07-26T15:40:23.136Z,1.92
2022-07-26T15:42:51.930Z,1.88
2022-07-26T15:45:19.478Z,1.40
2022-07-26T15:47:57.640Z,1.23
2022-07-26T15:50:26.155Z,2.55
2022-07-26T15:52:52.611Z,1.70
2022-07-26T15:55:19.347Z,1.77
2022-07-26T15:57:46.249Z,1.80
2022-07-26T16:00:14.928Z,1.65
2022-07-26T16:02:41.454Z,1.70
2022-07-26T16:05:08.413Z,1.60
2022-07-26T16:07:34.859Z,2.33
2022-07-26T16:10:01.766Z,1.98
2022-07-26T16:12:28.669Z,3.17
2022-07-26T16:14:55.160Z,1.95
2022-07-26T16:17:21.550Z,1.80
2022-07-26T16:19:48.766Z,1.60
2022-07-26T16:22:15.296Z,1.92
2022-07-26T16:24:41.706Z,1.60
2022-07-26T16:27:08.133Z,1.88
2022-07-26T16:29:34.530Z,1.40
2022-07-26T16:32:01.243Z,1.13
2022-07-26T16:34:29.496Z,2.03
2022-07-26T16:36:55.888Z,1.77
2022-07-26T16:39:22.297Z,1.75
2022-07-26T16:41:48.674Z,1.67
2022-07-26T16:44:15.173Z,1.50
2022-07-26T16:46:41.691Z,1.80
2022-07-26T16:49:10.761Z,1.88
2022-07-26T16:51:37.348Z,1.83
2022-07-26T16:54:03.865Z,1.40
2022-07-26T16:56:30.265Z,1.50
2022-07-26T16:58:56.685Z,1.65
2022-07-26T17:01:23.362Z,2.30
2022-07-26T17:03:49.799Z,1.80
2022-07-26T17:06:16.220Z,1.77
2022-07-26T17:08:43.244Z,2.17
2022-07-26T17:11:09.798Z,1.52
2022-07-26T17:13:36.229Z,1.90
2022-07-26T17:16:02.694Z,1.70
2022-07-26T17:18:29.602Z,1.58
2022-07-26T17:20:57.519Z,1.52
2022-07-26T17:23:23.944Z,2.03
2022-07-26T17:25:50.322Z,1.70
2022-07-26T17:28:17.464Z,1.80
2022-07-26T17:30:43.828Z,2.03
2022-07-26T17:33:10.592Z,1.77
2022-07-26T17:35:37.207Z,1.42
2022-07-26T17:38:04.311Z,1.20
2022-07-26T17:40:31.609Z,1.35
2022-07-26T17:42:58.809Z,1.88
2022-07-26T17:45:25.260Z,1.63
2022-07-26T17:47:51.728Z,1.85
2022-07-26T17:53:05.325Z,2.03
2022-07-26T17:55:31.773Z,2.05
2022-07-26T17:57:58.231Z,2.22
2022-07-26T18:00:28.555Z,2.30
2022-07-26T18:05:22.339Z,1.75
2022-07-26T18:07:48.830Z,2.70
2022-07-26T18:10:15.301Z,1.52
2022-07-26T18:12:41.869Z,2.30
2022-07-26T18:15:08.514Z,2.63
2022-07-26T18:17:34.938Z,1.63
2022-07-26T18:20:01.330Z,2.22
2022-07-26T18:22:27.811Z,2.20
2022-07-26T18:24:54.384Z,2.08
2022-07-26T18:27:22.615Z,1.63
2022-07-26T18:29:49.204Z,2.88
2022-07-26T18:32:15.648Z,1.90
2022-07-26T18:34:51.825Z,1.85
2022-07-26T18:37:18.839Z,1.70
2022-07-26T18:39:45.221Z,2.03
2022-07-26T18:42:11.615Z,1.95
2022-07-26T18:44:38.419Z,1.90
2022-07-26T18:47:05.522Z,1.98
2022-07-26T18:49:32.433Z,2.30
2022-07-26T18:52:05.815Z,2.25
2022-07-26T18:54:35.406Z,1.70
2022-07-26T18:57:01.883Z,1.90
2022-07-26T18:59:29.022Z,1.90
2022-07-26T19:01:55.496Z,1.88
2022-07-26T19:04:22.007Z,1.83
2022-07-26T19:06:48.486Z,2.20
2022-07-26T19:09:16.295Z,1.63
2022-07-26T19:11:45.624Z,1.88
2022-07-26T19:14:12.084Z,2.28
2022-07-26T19:16:38.583Z,2.22
2022-07-26T19:19:05.004Z,2.75
2022-07-26T19:21:31.465Z,2.95
2022-07-26T19:23:57.910Z,2.47
2022-07-26T19:26:24.380Z,1.50
2022-07-26T19:28:51.085Z,1.95
2022-07-26T19:31:17.517Z,2.42
2022-07-26T19:33:44.002Z,1.90
2022-07-26T19:36:10.821Z,2.08
2022-07-26T19:38:37.299Z,2.47
2022-07-26T19:41:03.770Z,1.80
2022-07-26T19:43:33.021Z,2.47
2022-07-26T19:46:01.963Z,1.73
2022-07-26T19:48:28.563Z,2.38
2022-07-26T19:50:55.076Z,2.47
2022-07-26T19:53:21.558Z,2.20
2022-07-26T19:55:47.987Z,2.10
2022-07-26T19:58:14.404Z,2.38
2022-07-26T20:00:44.038Z,2.05
2022-07-26T20:03:11.994Z,2.03
2022-07-26T20:05:40.094Z,2.47
2022-07-26T20:08:06.486Z,2.40
2022-07-26T20:10:33.081Z,2.30
2022-07-26T20:12:59.679Z,3.17
2022-07-26T20:15:26.154Z,2.97
2022-07-26T20:17:52.605Z,1.92
2022-07-26T20:20:19.954Z,2.38
2022-07-26T20:22:46.351Z,2.97
2022-07-26T20:25:15.745Z,1.83
2022-07-26T20:27:48.274Z,2.58
2022-07-26T20:30:14.817Z,2.05
2022-07-26T20:32:41.178Z,2.40
2022-07-26T20:35:07.856Z,2.88
2022-07-26T20:37:34.360Z,2.33
2022-07-26T20:40:00.742Z,2.58
2022-07-26T20:42:27.141Z,2.88
2022-07-26T20:44:54.370Z,2.40
2022-07-26T20:47:20.750Z,2.67
2022-07-26T20:49:47.201Z,2.85
2022-07-26T20:52:14.216Z,1.90
2022-07-26T20:54:40.887Z,2.78
2022-07-26T20:57:07.284Z,2.05
2022-07-26T20:59:34.999Z,2.38
2022-07-26T21:02:01.688Z,2.72
2022-07-26T21:04:28.135Z,2.70
2022-07-26T21:06:54.694Z,3.10
2022-07-26T21:09:27.016Z,2.65
2022-07-26T21:11:54.020Z,2.45
2022-07-26T21:14:20.691Z,2.58
2022-07-26T21:16:47.195Z,2.15
2022-07-26T21:19:15.216Z,2.40
2022-07-26T21:21:41.811Z,2.15
2022-07-26T21:24:08.453Z,2.40
2022-07-26T21:26:38.077Z,1.92
2022-07-26T21:29:04.849Z,2.42
2022-07-26T21:31:31.410Z,2.00
2022-07-26T21:33:57.851Z,1.88
2022-07-26T21:36:24.315Z,3.17
2022-07-26T21:38:50.733Z,2.40
2022-07-26T21:41:17.130Z,2.92
2022-07-26T21:43:46.111Z,2.50
2022-07-26T21:46:13.309Z,2.85
2022-07-26T21:48:40.207Z,2.80
2022-07-26T21:51:06.725Z,3.17
2022-07-26T21:53:33.130Z,2.55
2022-07-26T21:55:59.597Z,2.40
2022-07-26T21:58:28.011Z,2.35
2022-07-26T22:01:06.913Z,2.13
2022-07-26T22:03:34.625Z,3.20
2022-07-26T22:06:03.338Z,2.70
2022-07-26T22:08:29.804Z,2.25
2022-07-26T22:10:58.185Z,2.45
2022-07-26T22:13:24.609Z,2.40
2022-07-26T22:15:51.130Z,2.03
2022-07-26T22:18:17.744Z,2.47
2022-07-26T22:20:44.281Z,2.30
2022-07-26T22:23:11.871Z,2.22
2022-07-26T22:25:38.471Z,2.53
2022-07-26T22:28:09.319Z,2.33
2022-07-26T22:30:35.896Z,2.38
2022-07-26T22:33:03.084Z,2.05
2022-07-26T22:35:34.902Z,2.15
2022-07-26T22:38:12.362Z,2.92
2022-07-26T22:40:39.447Z,2.55
2022-07-26T22:43:06.242Z,2.15
2022-07-26T22:45:33.603Z,2.65
2022-07-26T22:48:01.465Z,2.22
2022-07-26T22:50:28.008Z,1.95
2022-07-26T22:52:55.282Z,2.38
2022-07-26T22:55:21.992Z,3.05
2022-07-26T22:57:48.510Z,2.17
2022-07-26T23:00:17.641Z,2.28
2022-07-26T23:02:44.548Z,2.92
2022-07-26T23:05:11.160Z,2.15
2022-07-26T23:07:40.074Z,2.65
2022-07-26T23:10:07.890Z,2.65
2022-07-26T23:12:36.868Z,2.45
2022-07-26T23:15:06.741Z,3.25
2022-07-26T23:17:36.290Z,2.60
2022-07-26T23:20:05.498Z,2.25
2022-07-26T23:22:34.956Z,2.50
2022-07-26T23:25:05.368Z,2.03
2022-07-26T23:27:31.745Z,1.98
2022-07-26T23:29:58.147Z,1.80
2022-07-26T23:32:26.936Z,1.98
2022-07-26T23:34:53.363Z,2.15
2022-07-26T23:37:19.773Z,1.90
2022-07-26T23:39:46.157Z,2.10
2022-07-26T23:42:12.570Z,2.90
2022-07-26T23:44:44.720Z,2.53
2022-07-26T23:47:11.274Z,2.17
2022-07-26T23:49:42.089Z,1.63
2022-07-26T23:52:08.560Z,2.58
2022-07-26T23:54:36.040Z,2.05
2022-07-26T23:57:02.430Z,2.65
2022-07-26T23:59:31.753Z,2.05
